createdAt,value
2023-03-10T00:02:11.201Z,31.33
2023-03-10T00:06:11.271Z,31.32
2023-03-10T00:10:11.404Z,31.33
2023-03-10T00:14:11.493Z,31.30
2023-03-10T00:18:11.654Z,31.32
2023-03-10T00:22:11.796Z,31.32
2023-03-10T00:26:12.018Z,31.29
2023-03-10T00:30:12.202Z,31.30
2023-03-10T00:34:12.343Z,31.31
2023-03-10T00:38:12.571Z,31.27
2023-03-10T00:42:12.706Z,31.28
2023-03-10T00:46:12.943Z,31.29
2023-03-10T00:50:13.007Z,31.28
2023-03-10T00:54:13.135Z,31.27
2023-03-10T00:58:13.277Z,31.27
2023-03-10T01:02:13.361Z,31.28
2023-03-10T01:06:13.413Z,31.25
2023-03-10T01:10:13.554Z,31.25
2023-03-10T01:14:13.577Z,31.27
2023-03-10T01:18:13.603Z,31.26
2023-03-10T01:22:13.597Z,31.24
2023-03-10T01:26:13.508Z,31.24
2023-03-10T01:30:13.487Z,31.23
2023-03-10T01:34:13.464Z,31.23
2023-03-10T01:38:13.444Z,31.22
2023-03-10T01:42:13.418Z,31.23
2023-03-10T01:46:13.365Z,31.24
2023-03-10T01:50:13.308Z,31.23
2023-03-10T01:54:13.295Z,31.22
2023-03-10T01:58:13.224Z,31.21
2023-03-10T02:02:13.290Z,31.21
2023-03-10T02:06:14.441Z,31.25
2023-03-10T02:10:13.095Z,31.22
2023-03-10T02:14:13.163Z,31.21
2023-03-10T02:18:13.075Z,31.19
2023-03-10T02:22:13.022Z,31.20
2023-03-10T02:26:12.940Z,31.21
2023-03-10T02:30:12.934Z,31.23
2023-03-10T02:34:12.911Z,31.21
2023-03-10T02:38:12.888Z,31.23
2023-03-10T02:42:12.884Z,31.20
2023-03-10T02:46:12.893Z,31.20
2023-03-10T02:50:12.743Z,31.21
2023-03-10T02:54:12.685Z,31.19
2023-03-10T02:58:12.655Z,31.20
2023-03-10T03:02:12.942Z,31.19
2023-03-10T03:06:12.604Z,31.19
2023-03-10T03:10:12.527Z,31.19
2023-03-10T03:14:12.502Z,31.24
2023-03-10T03:18:12.485Z,31.22
2023-03-10T03:22:12.455Z,31.21
2023-03-10T03:26:12.391Z,31.20
2023-03-10T03:30:12.390Z,31.23
2023-03-10T03:34:12.336Z,31.21
2023-03-10T03:38:12.260Z,31.21
2023-03-10T03:42:12.264Z,31.22
2023-03-10T03:46:12.276Z,31.23
2023-03-10T03:50:12.201Z,31.21
2023-03-10T03:54:12.156Z,31.21
2023-03-10T03:58:12.090Z,31.20
2023-03-10T04:02:12.087Z,31.21
2023-03-10T04:06:12.508Z,31.23
2023-03-10T04:10:12.026Z,31.22
2023-03-10T04:14:11.995Z,31.23
2023-03-10T04:18:11.932Z,31.22
2023-03-10T04:22:11.892Z,31.25
2023-03-10T04:26:11.876Z,31.24
2023-03-10T04:30:11.869Z,31.25
2023-03-10T04:34:11.832Z,31.25
2023-03-10T04:38:11.819Z,31.22
2023-03-10T04:42:11.796Z,31.22
2023-03-10T04:46:11.807Z,31.22
2023-03-10T04:50:11.715Z,31.24
2023-03-10T04:54:11.656Z,31.28
2023-03-10T04:58:11.630Z,31.26
2023-03-10T05:02:11.638Z,31.23
2023-03-10T05:06:11.536Z,31.24
2023-03-10T05:10:11.558Z,31.17
2023-03-10T05:14:11.483Z,31.08
2023-03-10T05:18:11.448Z,31.07
2023-03-10T05:22:11.440Z,31.04
2023-03-10T05:26:11.402Z,30.97
2023-03-10T05:30:11.322Z,30.87
2023-03-10T05:34:11.559Z,30.90
2023-03-10T05:38:11.233Z,30.86
2023-03-10T05:42:11.206Z,30.86
2023-03-10T05:46:11.228Z,30.86
2023-03-10T05:50:11.117Z,30.90
2023-03-10T05:54:11.188Z,30.91
2023-03-10T05:58:11.081Z,30.94
2023-03-10T06:02:11.076Z,30.94
2023-03-10T06:06:11.512Z,30.75
2023-03-10T06:10:11.047Z,30.79
2023-03-10T06:14:11.274Z,30.79
2023-03-10T06:18:11.298Z,30.73
2023-03-10T06:22:11.378Z,30.65
2023-03-10T06:26:11.458Z,30.60
2023-03-10T06:30:11.529Z,30.61
2023-03-10T06:34:11.611Z,29.01
2023-03-10T06:38:12.564Z,26.31
2023-03-10T06:42:12.086Z,27.02
2023-03-10T06:46:12.164Z,28.35
2023-03-10T06:50:12.186Z,29.07
2023-03-10T06:54:12.171Z,29.71
2023-03-10T06:58:12.158Z,30.07
2023-03-10T07:02:12.618Z,30.27
2023-03-10T07:06:12.042Z,30.51
2023-03-10T07:10:12.004Z,30.67
2023-03-10T07:14:11.988Z,31.00
2023-03-10T07:18:11.882Z,31.30
2023-03-10T07:22:11.940Z,31.56
2023-03-10T07:26:11.865Z,31.91
2023-03-10T07:30:11.880Z,32.21
2023-03-10T07:34:11.796Z,32.53
2023-03-10T07:38:11.687Z,32.74
2023-03-10T07:42:11.672Z,32.91
2023-03-10T07:46:11.855Z,28.98
2023-03-10T07:50:11.616Z,30.59
2023-03-10T07:54:11.600Z,31.65
2023-03-10T07:58:11.636Z,32.02
2023-03-10T08:02:12.081Z,32.03
2023-03-10T08:06:11.800Z,32.26
2023-03-10T08:10:11.662Z,32.47
2023-03-10T08:14:11.701Z,32.77
2023-03-10T08:18:11.649Z,33.02
2023-03-10T08:22:11.621Z,33.24
2023-03-10T08:26:11.556Z,33.38
2023-03-10T08:30:11.548Z,33.50
2023-03-10T08:34:11.538Z,30.93
2023-03-10T08:38:11.436Z,27.66
2023-03-10T08:42:11.609Z,28.34
2023-03-10T08:46:11.471Z,29.28
2023-03-10T08:50:11.324Z,30.45
2023-03-10T08:54:11.347Z,30.84
2023-03-10T08:58:11.253Z,31.21
2023-03-10T09:02:11.261Z,31.39
2023-03-10T09:06:11.237Z,31.84
2023-03-10T09:10:11.368Z,32.18
2023-03-10T09:14:11.455Z,32.41
2023-03-10T09:18:11.646Z,32.64
2023-03-10T09:22:12.469Z,32.88
2023-03-10T09:26:12.187Z,32.81
2023-03-10T09:30:12.349Z,32.60
2023-03-10T09:34:12.482Z,32.34
2023-03-10T09:38:12.615Z,32.13
2023-03-10T09:42:13.328Z,31.74
2023-03-10T09:46:13.077Z,28.63
2023-03-10T09:50:13.065Z,27.36
2023-03-10T09:54:12.950Z,26.36
2023-03-10T09:58:12.908Z,25.82
2023-03-10T10:02:12.888Z,25.41
2023-03-10T10:06:12.877Z,25.48
2023-03-10T10:10:12.832Z,25.00
2023-03-10T10:14:15.894Z,24.88
2023-03-10T10:18:19.641Z,24.99
2023-03-10T10:22:13.688Z,25.31
2023-03-10T10:26:12.635Z,25.06
2023-03-10T10:30:12.572Z,24.98
2023-03-10T10:34:15.690Z,25.98
2023-03-10T10:38:12.559Z,27.20
2023-03-10T10:42:12.510Z,27.93
2023-03-10T10:46:12.575Z,28.65
2023-03-10T10:50:12.468Z,28.47
2023-03-10T10:54:12.432Z,28.32
2023-03-10T10:58:12.358Z,27.96
2023-03-10T11:02:12.425Z,29.23
2023-03-10T11:06:12.315Z,29.56
2023-03-10T11:10:12.296Z,29.99
2023-03-10T11:14:12.296Z,30.26
2023-03-10T11:18:12.472Z,30.69
2023-03-10T11:22:12.619Z,31.36
2023-03-10T11:26:15.014Z,31.58
2023-03-10T11:30:13.232Z,31.22
2023-03-10T11:34:12.829Z,31.22
2023-03-10T11:38:12.896Z,31.39
2023-03-10T11:42:13.000Z,28.33
2023-03-10T11:46:13.370Z,27.72
2023-03-10T11:50:13.225Z,28.78
2023-03-10T11:54:13.676Z,28.86
2023-03-10T11:58:13.184Z,29.00
2023-03-10T12:02:13.097Z,28.94
2023-03-10T12:06:13.035Z,29.15
2023-03-10T12:10:12.986Z,30.03
2023-03-10T12:14:12.913Z,30.08
2023-03-10T12:18:13.269Z,30.13
2023-03-10T12:22:12.881Z,29.60
2023-03-10T12:26:12.856Z,27.70
2023-03-10T12:30:12.816Z,28.78
2023-03-10T12:34:13.048Z,29.09
2023-03-10T12:38:13.082Z,29.25
2023-03-10T12:42:13.269Z,29.50
2023-03-10T12:46:13.404Z,29.57
2023-03-10T12:50:13.552Z,29.53
2023-03-10T12:54:13.664Z,29.44
2023-03-10T12:58:13.676Z,29.43
2023-03-10T13:02:13.747Z,29.42
2023-03-10T13:06:13.776Z,29.36
2023-03-10T13:10:13.856Z,29.33
2023-03-10T13:14:13.855Z,29.29
2023-03-10T13:18:13.870Z,29.41
2023-03-10T13:22:13.897Z,29.46
2023-03-10T13:26:13.920Z,29.56
2023-03-10T13:30:13.939Z,29.61
2023-03-10T13:34:13.986Z,29.61
2023-03-10T13:38:14.011Z,29.68
2023-03-10T13:42:14.033Z,29.74
2023-03-10T13:46:14.102Z,29.75
2023-03-10T13:50:14.096Z,29.71
2023-03-10T13:54:14.108Z,29.73
2023-03-10T13:58:14.130Z,29.73
2023-03-10T14:02:14.174Z,29.75
2023-03-10T14:06:14.188Z,29.69
2023-03-10T14:10:14.269Z,29.67
2023-03-10T14:14:14.311Z,29.91
2023-03-10T14:18:14.381Z,29.91
2023-03-10T14:22:14.450Z,29.95
2023-03-10T14:26:14.518Z,30.01
2023-03-10T14:30:14.619Z,30.07
2023-03-10T14:34:14.640Z,30.02
2023-03-10T14:38:14.712Z,30.10
2023-03-10T14:42:14.797Z,30.14
2023-03-10T14:46:15.349Z,30.08
2023-03-10T14:50:14.897Z,30.12
2023-03-10T14:54:14.987Z,30.16
2023-03-10T14:58:15.090Z,30.19
2023-03-10T15:02:15.148Z,30.26
2023-03-10T15:06:15.205Z,30.15
2023-03-10T15:10:15.344Z,30.04
2023-03-10T15:14:15.442Z,30.21
2023-03-10T15:18:15.505Z,30.12
2023-03-10T15:22:15.584Z,29.99
2023-03-10T15:26:15.644Z,29.90
2023-03-10T15:30:15.784Z,29.90
2023-03-10T15:34:15.839Z,29.85
2023-03-10T15:38:15.933Z,29.82
2023-03-10T15:42:16.034Z,29.75
2023-03-10T15:46:16.137Z,29.71
2023-03-10T15:50:16.284Z,29.58
2023-03-10T15:54:16.357Z,29.54
2023-03-10T15:58:16.352Z,29.60
2023-03-10T16:02:16.419Z,29.66
2023-03-10T16:06:16.296Z,29.66
2023-03-10T16:10:16.257Z,29.63
2023-03-10T16:14:16.190Z,29.66
2023-03-10T16:18:16.167Z,29.75
2023-03-10T16:22:16.129Z,29.71
2023-03-10T16:26:16.123Z,29.90
2023-03-10T16:30:16.244Z,29.89
2023-03-10T16:34:16.008Z,29.92
2023-03-10T16:38:16.203Z,29.89
2023-03-10T16:42:16.345Z,29.90
2023-03-10T16:46:16.492Z,29.88
2023-03-10T16:50:16.649Z,29.89
2023-03-10T16:54:16.786Z,29.93
2023-03-10T16:58:16.964Z,29.96
2023-03-10T17:02:17.110Z,29.86
2023-03-10T17:06:17.222Z,29.98
2023-03-10T17:10:17.181Z,29.74
2023-03-10T17:14:17.183Z,29.57
2023-03-10T17:21:01.235Z,29.53
2023-03-10T17:25:01.202Z,29.48
2023-03-10T17:29:01.143Z,29.51
2023-03-10T17:33:01.672Z,29.48
2023-03-10T17:37:01.607Z,29.44
2023-03-10T17:41:01.565Z,29.43
2023-03-10T17:45:01.549Z,29.43
2023-03-10T17:49:01.528Z,29.40
2023-03-10T17:53:01.492Z,29.36
2023-03-10T17:57:01.427Z,29.34
2023-03-10T18:01:01.408Z,29.35
2023-03-10T18:05:01.382Z,29.31
2023-03-10T18:09:01.413Z,29.37
2023-03-10T18:13:01.584Z,29.39
2023-03-10T18:17:01.669Z,29.41
2023-03-10T18:21:01.899Z,29.40
2023-03-10T18:25:01.881Z,29.34
2023-03-10T18:29:01.891Z,29.31
2023-03-10T18:33:01.792Z,29.27
2023-03-10T18:37:01.762Z,29.26
2023-03-10T18:41:01.668Z,29.24
2023-03-10T18:45:01.661Z,29.21
2023-03-10T18:49:01.639Z,29.22
2023-03-10T18:53:01.605Z,29.25
2023-03-10T18:57:01.535Z,29.22
2023-03-10T19:01:01.508Z,29.20
2023-03-10T19:05:01.632Z,29.20
2023-03-10T19:09:01.617Z,29.17
2023-03-10T19:13:01.588Z,29.19
2023-03-10T19:17:01.562Z,29.17
2023-03-10T19:21:01.504Z,29.17
2023-03-10T19:25:01.470Z,29.15
2023-03-10T19:29:01.449Z,29.13
2023-03-10T19:33:01.412Z,29.14
2023-03-10T19:37:01.341Z,29.10
2023-03-10T19:41:01.317Z,29.11
2023-03-10T19:45:01.349Z,29.10
2023-03-10T19:49:01.325Z,29.05
2023-03-10T19:53:01.236Z,29.07
2023-03-10T19:57:01.234Z,29.07
2023-03-10T20:01:01.229Z,29.08
2023-03-10T20:05:01.141Z,29.07
2023-03-10T20:09:01.069Z,29.09
2023-03-10T20:13:01.065Z,29.08
2023-03-10T20:17:01.056Z,29.08
2023-03-10T20:21:01.025Z,29.10
2023-03-10T20:25:01.153Z,29.06
2023-03-10T20:29:01.881Z,29.11
2023-03-10T20:33:01.111Z,29.10
2023-03-10T20:37:01.089Z,29.10
2023-03-10T20:41:01.016Z,29.09
2023-03-10T20:45:00.995Z,29.09
2023-03-10T20:49:00.969Z,29.09
2023-03-10T20:53:00.928Z,29.05
2023-03-10T20:57:00.919Z,29.12
2023-03-10T21:01:01.106Z,29.21
2023-03-10T21:05:01.250Z,29.25
2023-03-10T21:09:01.414Z,29.27
2023-03-10T21:13:01.328Z,29.33
2023-03-10T21:17:01.350Z,29.38
2023-03-10T21:21:01.323Z,29.36
2023-03-10T21:25:01.264Z,29.42
2023-03-10T21:29:01.538Z,29.43
2023-03-10T21:33:01.210Z,29.46
2023-03-10T21:37:01.149Z,29.50
2023-03-10T21:41:01.126Z,29.53
2023-03-10T21:45:01.151Z,29.53
2023-03-10T21:49:01.029Z,29.57
2023-03-10T21:53:01.193Z,29.60
2023-03-10T21:57:01.023Z,29.61
2023-03-10T22:01:00.881Z,29.63
2023-03-10T22:05:00.928Z,29.64
2023-03-10T22:09:00.836Z,29.69
2023-03-10T22:13:00.874Z,29.72
2023-03-10T22:17:00.789Z,29.71
2023-03-10T22:21:00.786Z,29.74
2023-03-10T22:25:00.717Z,29.76
2023-03-10T22:29:00.722Z,29.77
2023-03-10T22:33:00.594Z,29.77
2023-03-10T22:37:00.560Z,29.82
2023-03-10T22:41:00.607Z,29.84
2023-03-10T22:45:00.470Z,29.86
2023-03-10T22:49:03.565Z,29.86
2023-03-10T22:53:00.412Z,29.86
2023-03-10T22:57:00.374Z,29.88
2023-03-10T23:01:01.043Z,29.88
2023-03-10T23:05:00.305Z,29.90
2023-03-10T23:09:00.282Z,29.91
2023-03-10T23:13:00.306Z,29.94
2023-03-10T23:17:00.177Z,29.96
2023-03-10T23:21:00.146Z,29.94
2023-03-10T23:25:00.137Z,29.96
2023-03-10T23:29:00.069Z,29.97
2023-03-10T23:33:00.023Z,29.98
2023-03-10T23:37:00.015Z,30.01
2023-03-10T23:40:59.979Z,30.02
2023-03-10T23:44:59.912Z,30.03
2023-03-10T23:49:00.856Z,30.04
2023-03-10T23:52:59.856Z,30.04
2023-03-10T23:56:59.837Z,30.06
